Time;durP1;ratioP1;P1;durP2;ratioP2;P2;SDS_P1;SDS_P2;PMS_P1;PMS_P2;Temp;Humidity;BMP_temperature;BMP_pressure;BME280_temperature;BME280_humidity;BME280_pressure;Samples;Min_cycle;Max_cycle;Signal;HPM_P1;HPM_P2
2022/11/05 00:10:37;;;;;;;1.13;1.13;;;8.50;99.90;;;;;;5076379;28;20282;-68
2022/11/05 00:18:32;;;;;;;0.70;0.70;;;8.50;99.90;;;;;;5076247;28;20184;-69
2022/11/05 00:20:58;;;;;;;0.30;0.30;;;8.50;99.90;;;;;;5076088;28;20657;-70
2022/11/05 00:26:10;;;;;;;0.57;0.57;;;8.60;99.90;;;;;;5076262;28;20677;-71
2022/11/05 00:28:36;;;;;;;0.57;0.57;;;8.70;99.90;;;;;;5076049;28;20180;-70
2022/11/05 00:31:10;;;;;;;0.90;0.90;;;8.70;99.90;;;;;;5075866;28;20184;-69
2022/11/05 00:33:36;;;;;;;0.40;0.40;;;8.50;99.90;;;;;;5076007;28;20235;-69
2022/11/05 00:36:03;;;;;;;0.30;0.30;;;8.60;99.90;;;;;;5076046;28;20219;-69
2022/11/05 00:38:29;;;;;;;0.40;0.40;;;8.50;99.90;;;;;;5075737;28;20176;-68
2022/11/05 00:40:55;;;;;;;0.40;0.40;;;8.50;99.90;;;;;;5075568;28;20195;-71
2022/11/05 00:46:04;;;;;;;0.40;0.40;;;8.40;99.90;;;;;;5075920;28;20171;-69
2022/11/05 00:51:14;;;;;;;0.60;0.60;;;8.50;99.90;;;;;;5075594;28;20199;-70
2022/11/05 00:53:40;;;;;;;0.40;0.40;;;8.50;99.90;;;;;;5075609;28;20168;-70
2022/11/05 00:56:06;;;;;;;1.67;0.90;;;8.60;99.90;;;;;;5075525;28;20430;-69
2022/11/05 00:58:31;;;;;;;1.40;1.30;;;8.60;99.90;;;;;;5075703;28;20200;-70
2022/11/05 01:00:58;;;;;;;0.30;0.30;;;8.60;99.90;;;;;;5075413;28;20217;-69
2022/11/05 01:03:30;;;;;;;1.25;1.02;;;8.60;99.90;;;;;;5075526;28;20196;-68
2022/11/05 01:06:04;;;;;;;0.30;0.30;;;8.70;99.90;;;;;;5075400;28;20175;-69
2022/11/05 01:08:29;;;;;;;3.80;0.60;;;8.70;99.90;;;;;;5074215;28;20171;-71
2022/11/05 01:10:57;;;;;;;0.93;0.93;;;8.60;99.90;;;;;;5074693;28;20278;-70
2022/11/05 01:13:26;;;;;;;0.30;0.30;;;8.50;99.90;;;;;;5075000;28;20206;-71
2022/11/05 01:15:52;;;;;;;0.45;0.45;;;8.60;99.90;;;;;;5075253;28;20219;-69
2022/11/05 01:18:20;;;;;;;0.63;0.63;;;8.60;99.90;;;;;;5075086;28;20184;-69
2022/11/05 01:20:46;;;;;;;0.55;0.55;;;8.50;99.90;;;;;;5074767;28;20240;-70
2022/11/05 01:23:12;;;;;;;0.52;0.52;;;8.50;99.90;;;;;;5074916;28;20199;-68
2022/11/05 01:25:38;;;;;;;0.40;0.40;;;8.50;99.90;;;;;;5074860;28;20196;-70
2022/11/05 01:28:04;;;;;;;0.40;0.40;;;8.50;99.90;;;;;;5075071;28;20308;-70
2022/11/05 01:30:30;;;;;;;0.30;0.30;;;8.50;99.90;;;;;;5074657;28;20181;-71
2022/11/05 01:32:56;;;;;;;0.50;0.50;;;8.50;99.90;;;;;;5074801;28;20177;-68
2022/11/05 01:35:22;;;;;;;0.40;0.40;;;8.50;99.90;;;;;;5075018;28;20429;-71
2022/11/05 01:37:48;;;;;;;0.50;0.50;;;8.50;99.90;;;;;;5074770;28;20414;-71
2022/11/05 01:40:18;;;;;;;4.20;0.70;;;8.50;99.90;;;;;;5074276;28;20455;-69
2022/11/05 01:42:44;;;;;;;2.80;1.48;;;8.50;99.90;;;;;;5074535;28;20387;-69
2022/11/05 01:45:15;;;;;;;0.50;0.50;;;8.60;99.90;;;;;;5074505;28;20173;-68
2022/11/05 01:48:01;;;;;;;0.57;0.57;;;8.70;99.90;;;;;;5074484;28;20165;-69
2022/11/05 01:51:05;;;;;;;1.40;0.50;;;8.50;99.90;;;;;;5074224;28;20177;-71
2022/11/05 01:53:37;;;;;;;0.63;0.63;;;8.60;99.90;;;;;;5044226;28;20193;-69
2022/11/05 01:56:02;;;;;;;0.93;0.60;;;8.60;99.90;;;;;;5074340;28;20176;-69
2022/11/05 01:58:33;;;;;;;0.53;0.53;;;8.60;99.90;;;;;;5074265;28;20277;-70
2022/11/05 02:00:59;;;;;;;0.40;0.40;;;8.60;99.90;;;;;;5074149;28;20216;-68
2022/11/05 02:03:26;;;;;;;0.30;0.30;;;8.70;99.90;;;;;;5074210;28;20263;-70
2022/11/05 02:05:55;;;;;;;0.68;0.68;;;8.70;99.90;;;;;;5074750;28;20207;-72
2022/11/05 02:08:40;;;;;;;0.70;0.70;;;8.70;99.90;;;;;;5074265;28;20173;-69
2022/11/05 02:11:06;;;;;;;0.60;0.60;;;8.70;99.90;;;;;;5073839;28;20274;-71
2022/11/05 02:13:32;;;;;;;0.60;0.60;;;8.70;99.90;;;;;;5073995;28;20179;-70
2022/11/05 02:16:13;;;;;;;0.40;0.40;;;8.70;99.90;;;;;;5074164;28;20181;-70
2022/11/05 02:19:04;;;;;;;0.30;0.30;;;8.70;99.90;;;;;;5074132;28;20177;-70
2022/11/05 02:21:33;;;;;;;1.63;0.85;;;8.60;99.90;;;;;;5062781;28;20257;-71
2022/11/05 02:24:28;;;;;;;0.40;0.40;;;8.60;99.90;;;;;;5073807;28;20174;-71
2022/11/05 02:27:17;;;;;;;0.40;0.40;;;8.70;99.90;;;;;;5073695;28;20541;-69
2022/11/05 02:30:03;;;;;;;0.30;0.30;;;8.60;99.90;;;;;;5060904;28;20244;-70
2022/11/05 02:33:10;;;;;;;0.43;0.40;;;8.60;99.90;;;;;;5073597;28;20193;-70
2022/11/05 02:36:07;;;;;;;0.40;0.40;;;8.50;99.90;;;;;;5073241;28;20554;-70
2022/11/05 02:38:42;;;;;;;0.57;0.57;;;8.60;99.90;;;;;;5073742;28;20208;-71
2022/11/05 02:41:26;;;;;;;0.30;0.30;;;8.50;99.90;;;;;;5073572;28;20181;-69
2022/11/05 02:44:06;;;;;;;3.53;1.40;;;8.50;99.90;;;;;;5073640;28;20263;-71
2022/11/05 02:46:36;;;;;;;0.30;0.30;;;8.50;99.90;;;;;;5073727;28;20168;-71
2022/11/05 02:49:34;;;;;;;0.50;0.50;;;8.50;99.90;;;;;;5073490;28;20171;-69
2022/11/05 02:52:20;;;;;;;0.50;0.50;;;8.60;99.90;;;;;;5018297;28;20270;-71
2022/11/05 02:55:12;;;;;;;0.35;0.35;;;8.70;99.90;;;;;;5073456;28;20718;-71
2022/11/05 02:57:43;;;;;;;0.30;0.30;;;8.70;99.90;;;;;;5073686;28;20676;-69
2022/11/05 03:00:48;;;;;;;0.30;0.30;;;8.80;99.90;;;;;;5073218;28;20234;-70
2022/11/05 03:03:44;;;;;;;1.73;1.13;;;8.80;99.90;;;;;;5055955;28;20188;-70
2022/11/05 03:06:21;;;;;;;0.85;0.82;;;8.80;99.90;;;;;;5068431;28;20188;-69
2022/11/05 03:09:16;;;;;;;0.30;0.30;;;8.80;99.90;;;;;;5073220;28;20176;-71
2022/11/05 03:11:57;;;;;;;0.50;0.50;;;8.80;99.90;;;;;;5073187;28;20543;-69
2022/11/05 03:14:37;;;;;;;1.70;0.77;;;8.80;99.90;;;;;;5073281;28;20630;-69
2022/11/05 03:17:44;;;;;;;0.98;0.88;;;8.80;99.90;;;;;;5073249;28;20179;-71
2022/11/05 03:20:14;;;;;;;1.63;1.63;;;8.80;99.90;;;;;;5072305;28;20641;-70
2022/11/05 03:23:01;;;;;;;0.85;0.82;;;8.80;99.90;;;;;;5073135;28;20248;-69
2022/11/05 03:25:29;;;;;;;0.40;0.40;;;8.80;99.90;;;;;;5072967;28;20196;-69
2022/11/05 03:28:04;;;;;;;0.30;0.30;;;8.90;99.90;;;;;;5073348;28;20594;-71
2022/11/05 03:30:32;;;;;;;0.40;0.40;;;8.90;99.90;;;;;;5073001;28;20531;-70
2022/11/05 03:33:03;;;;;;;1.58;1.48;;;8.80;99.90;;;;;;5075577;28;20251;-70
2022/11/05 03:35:34;;;;;;;0.40;0.40;;;8.80;99.90;;;;;;5077144;28;20637;-71
2022/11/05 03:38:09;;;;;;;1.30;1.30;;;8.80;99.90;;;;;;5076999;28;20176;-69
2022/11/05 03:40:36;;;;;;;3.03;2.40;;;8.70;99.90;;;;;;5076996;28;20203;-71
2022/11/05 03:43:06;;;;;;;0.30;0.30;;;8.80;99.90;;;;;;5076946;28;20207;-69
2022/11/05 03:45:40;;;;;;;1.38;1.27;;;8.80;99.90;;;;;;5076957;28;20200;-71
2022/11/05 03:48:09;;;;;;;0.40;0.40;;;8.80;99.90;;;;;;5076949;28;20242;-71
2022/11/05 03:51:10;;;;;;;0.30;0.30;;;8.80;99.90;;;;;;5076491;28;20189;-69
2022/11/05 03:54:01;;;;;;;0.80;0.80;;;8.80;99.90;;;;;;5076716;28;20168;-71
2022/11/05 03:56:47;;;;;;;0.32;0.32;;;8.80;99.90;;;;;;5075873;28;20242;-71
2022/11/05 03:59:14;;;;;;;0.30;0.30;;;8.90;99.90;;;;;;5076476;28;20236;-71
2022/11/05 04:01:41;;;;;;;0.40;0.40;;;8.90;99.90;;;;;;5076758;28;20604;-71
2022/11/05 04:04:08;;;;;;;1.13;1.13;;;8.80;99.90;;;;;;5076511;28;20166;-69
2022/11/05 04:14:47;;;;;;;0.30;0.30;;;8.80;99.90;;;;;;5076375;28;20188;-69
2022/11/05 04:17:13;;;;;;;0.97;0.93;;;8.70;99.90;;;;;;5076220;28;20169;-70
2022/11/05 04:25:14;;;;;;;0.30;0.30;;;8.80;99.90;;;;;;5076243;28;20322;-69
2022/11/05 04:27:39;;;;;;;0.30;0.30;;;8.70;99.90;;;;;;5076346;28;20530;-70
2022/11/05 04:30:18;;;;;;;0.30;0.30;;;8.80;99.90;;;;;;5076121;28;20173;-69
2022/11/05 04:33:01;;;;;;;0.30;0.30;;;8.70;99.90;;;;;;5075991;28;20154;-68
2022/11/05 04:35:33;;;;;;;0.30;0.30;;;8.80;99.90;;;;;;5075931;28;20177;-69
2022/11/05 04:37:59;;;;;;;0.30;0.30;;;8.80;99.90;;;;;;5076072;28;20177;-69
2022/11/05 04:40:25;;;;;;;0.30;0.30;;;8.90;99.90;;;;;;5075520;28;20201;-71
2022/11/05 04:42:55;;;;;;;0.40;0.40;;;8.80;99.90;;;;;;5075256;28;20170;-71
2022/11/05 04:45:22;;;;;;;0.30;0.30;;;8.80;99.90;;;;;;5075233;28;20175;-71
2022/11/05 04:47:48;;;;;;;0.30;0.30;;;8.80;99.90;;;;;;5075831;28;20173;-70
2022/11/05 04:50:14;;;;;;;0.30;0.30;;;8.70;99.90;;;;;;5075246;28;20180;-68
2022/11/05 04:52:40;;;;;;;0.33;0.33;;;8.70;99.90;;;;;;5075576;28;20258;-69
2022/11/05 04:55:06;;;;;;;0.30;0.30;;;8.60;99.90;;;;;;5075639;28;20271;-68
2022/11/05 04:57:31;;;;;;;0.30;0.30;;;8.60;99.90;;;;;;5075676;28;20192;-68
2022/11/05 04:59:57;;;;;;;0.30;0.30;;;8.50;99.90;;;;;;5075132;28;20201;-69
2022/11/05 05:02:23;;;;;;;0.30;0.30;;;8.50;99.90;;;;;;5075461;28;20184;-69
2022/11/05 05:04:48;;;;;;;0.30;0.30;;;8.50;99.90;;;;;;5074223;28;20534;-68
2022/11/05 05:07:14;;;;;;;0.30;0.30;;;8.40;99.90;;;;;;5075269;28;20173;-71
2022/11/05 05:09:40;;;;;;;0.30;0.30;;;8.40;99.90;;;;;;5075055;28;20172;-69
2022/11/05 05:12:06;;;;;;;0.30;0.30;;;8.30;99.90;;;;;;5075191;28;20189;-70
2022/11/05 05:14:32;;;;;;;0.38;0.38;;;8.20;99.90;;;;;;5075200;28;20200;-68
2022/11/05 05:16:58;;;;;;;0.30;0.30;;;8.10;99.90;;;;;;5075173;28;20219;-71
2022/11/05 05:19:24;;;;;;;0.40;0.40;;;8.00;99.90;;;;;;5074866;28;20450;-71
2022/11/05 05:21:50;;;;;;;0.70;0.70;;;7.90;99.90;;;;;;5075265;28;20196;-70
2022/11/05 05:24:18;;;;;;;0.30;0.30;;;7.90;99.90;;;;;;5074971;28;20172;-69
2022/11/05 05:26:46;;;;;;;0.30;0.30;;;7.80;99.90;;;;;;5074838;28;20189;-71
2022/11/05 05:29:12;;;;;;;0.30;0.30;;;7.70;99.90;;;;;;5074737;28;20182;-69
2022/11/05 05:31:38;;;;;;;0.30;0.30;;;7.60;99.90;;;;;;5074713;28;20215;-69
2022/11/05 05:34:06;;;;;;;0.30;0.30;;;7.50;99.90;;;;;;5074643;28;20185;-69
2022/11/05 05:36:32;;;;;;;0.30;0.30;;;7.50;99.90;;;;;;5074707;28;20198;-69
2022/11/05 05:38:57;;;;;;;0.30;0.30;;;7.50;99.90;;;;;;5074567;28;20209;-69
2022/11/05 05:41:23;;;;;;;0.30;0.30;;;7.50;99.90;;;;;;5074470;28;20535;-70
2022/11/05 05:43:49;;;;;;;0.30;0.30;;;7.60;99.90;;;;;;5074577;28;20634;-67
2022/11/05 05:46:16;;;;;;;0.30;0.30;;;7.60;99.90;;;;;;5074744;28;20402;-69
2022/11/05 05:48:42;;;;;;;0.30;0.30;;;7.60;99.90;;;;;;5074656;28;20190;-70
2022/11/05 05:51:11;;;;;;;0.30;0.30;;;7.60;99.90;;;;;;5074244;28;20650;-69
2022/11/05 05:53:37;;;;;;;0.30;0.30;;;7.60;99.90;;;;;;5074477;28;20172;-70
2022/11/05 05:56:04;;;;;;;0.35;0.35;;;7.70;99.90;;;;;;5074061;28;20230;-70
2022/11/05 05:58:37;;;;;;;0.30;0.30;;;7.70;99.90;;;;;;5073178;28;20252;-71
2022/11/05 06:01:10;;;;;;;0.30;0.30;;;7.70;99.90;;;;;;5074131;28;20228;-69
2022/11/05 06:03:36;;;;;;;0.30;0.30;;;7.70;99.90;;;;;;5074287;28;20234;-71
2022/11/05 06:06:07;;;;;;;0.30;0.30;;;7.60;99.90;;;;;;5074319;28;20177;-68
2022/11/05 06:08:33;;;;;;;0.30;0.30;;;7.50;99.90;;;;;;5074228;28;20570;-71
2022/11/05 06:11:00;;;;;;;0.30;0.30;;;7.50;99.90;;;;;;5074413;28;20188;-71
2022/11/05 06:13:26;;;;;;;0.30;0.30;;;7.50;99.90;;;;;;5074059;28;20169;-70
2022/11/05 06:15:51;;;;;;;0.30;0.30;;;7.60;99.90;;;;;;5074388;28;20225;-70
2022/11/05 06:18:17;;;;;;;0.30;0.30;;;7.70;99.90;;;;;;5073893;28;20404;-69
2022/11/05 06:20:43;;;;;;;0.40;0.40;;;7.80;99.90;;;;;;5073656;28;20980;-68
2022/11/05 06:23:09;;;;;;;0.30;0.30;;;7.80;99.90;;;;;;5073837;28;20161;-68
2022/11/05 06:25:35;;;;;;;0.30;0.30;;;7.80;99.90;;;;;;5073913;28;20192;-70
2022/11/05 06:28:00;;;;;;;0.30;0.30;;;7.70;99.90;;;;;;5073920;28;20181;-68
2022/11/05 06:30:26;;;;;;;0.30;0.30;;;7.90;99.90;;;;;;5073624;28;20174;-70
2022/11/05 06:32:52;;;;;;;0.30;0.30;;;7.80;99.90;;;;;;5073726;28;20539;-71
2022/11/05 06:35:18;;;;;;;0.30;0.30;;;7.80;99.90;;;;;;5073789;28;20179;-71
2022/11/05 06:37:43;;;;;;;0.30;0.30;;;7.90;99.90;;;;;;5074006;28;20434;-69
2022/11/05 06:40:09;;;;;;;0.30;0.30;;;7.90;99.90;;;;;;5073401;28;20189;-70
2022/11/05 06:42:35;;;;;;;0.30;0.30;;;7.90;99.90;;;;;;5073549;28;20216;-68
2022/11/05 06:45:00;;;;;;;0.30;0.30;;;7.90;99.90;;;;;;5073501;28;20421;-71
2022/11/05 06:47:26;;;;;;;0.30;0.30;;;7.80;99.90;;;;;;5073569;28;20203;-68
2022/11/05 06:49:52;;;;;;;0.30;0.30;;;7.70;99.90;;;;;;5073464;28;20565;-69
2022/11/05 06:52:17;;;;;;;0.40;0.40;;;7.80;99.90;;;;;;5073458;28;20244;-70
2022/11/05 06:54:43;;;;;;;0.40;0.40;;;7.90;99.90;;;;;;5073448;28;20650;-67
2022/11/05 06:57:10;;;;;;;0.40;0.40;;;7.90;99.90;;;;;;5073634;28;20168;-68
2022/11/05 06:59:37;;;;;;;0.30;0.30;;;7.90;99.90;;;;;;5073125;28;20447;-71
2022/11/05 07:02:03;;;;;;;0.30;0.30;;;7.90;99.90;;;;;;5073306;28;20212;-71
2022/11/05 07:04:28;;;;;;;0.30;0.30;;;7.90;99.90;;;;;;5073389;28;20173;-70
2022/11/05 07:06:54;;;;;;;0.37;0.37;;;8.00;99.90;;;;;;5072608;28;20176;-71
2022/11/05 07:09:20;;;;;;;0.30;0.30;;;8.10;99.90;;;;;;5073269;28;20168;-70
2022/11/05 07:11:45;;;;;;;0.60;0.60;;;8.10;99.90;;;;;;5073275;28;20237;-70
2022/11/05 07:14:11;;;;;;;0.93;0.67;;;8.10;99.90;;;;;;5073186;28;20218;-69
2022/11/05 07:16:36;;;;;;;0.40;0.40;;;8.10;99.90;;;;;;5073439;28;20180;-68
2022/11/05 07:19:02;;;;;;;0.30;0.30;;;8.20;99.90;;;;;;5073174;28;20206;-70
2022/11/05 07:21:28;;;;;;;0.30;0.30;;;;;;;;;;5073466;28;20537;-68
2022/11/05 07:23:54;;;;;;;0.30;0.30;;;8.20;99.90;;;;;;5073112;28;20170;-68
2022/11/05 07:26:19;;;;;;;0.30;0.30;;;8.20;99.90;;;;;;5073028;28;20272;-71
2022/11/05 07:28:45;;;;;;;0.40;0.40;;;8.10;99.90;;;;;;5072918;28;20264;-69
2022/11/05 07:31:11;;;;;;;0.50;0.50;;;8.00;99.90;;;;;;5073183;28;20199;-69
2022/11/05 07:33:36;;;;;;;0.30;0.30;;;8.10;99.90;;;;;;5073106;28;20256;-69
2022/11/05 07:36:02;;;;;;;0.77;0.53;;;8.10;99.90;;;;;;5073070;28;20535;-70
2022/11/05 07:38:28;;;;;;;0.50;0.50;;;8.00;99.90;;;;;;5073153;28;20625;-70
2022/11/05 07:40:53;;;;;;;0.30;0.30;;;8.00;99.90;;;;;;5072968;28;20212;-69
2022/11/05 07:43:19;;;;;;;0.30;0.30;;;8.00;99.90;;;;;;5073016;28;20184;-69
2022/11/05 07:45:46;;;;;;;1.43;1.43;;;8.10;99.90;;;;;;5073020;28;20627;-70
2022/11/05 07:48:12;;;;;;;0.30;0.30;;;8.50;99.90;;;;;;5073298;28;20184;-68
2022/11/05 07:50:37;;;;;;;0.30;0.30;;;9.00;99.90;;;;;;5072773;28;20182;-70
2022/11/05 07:53:06;;;;;;;0.40;0.40;;;9.60;99.90;;;;;;5073041;28;20414;-71
2022/11/05 07:55:32;;;;;;;0.32;0.32;;;10.00;99.90;;;;;;5072892;28;20165;-71
2022/11/05 07:57:58;;;;;;;0.30;0.30;;;10.50;99.90;;;;;;5073302;28;20598;-71
2022/11/05 08:00:25;;;;;;;0.60;0.60;;;11.90;99.90;;;;;;5072578;28;20549;-71
2022/11/05 08:02:57;;;;;;;0.87;0.87;;;11.90;97.80;;;;;;5070631;28;20170;-70
2022/11/05 08:05:23;;;;;;;0.60;0.47;;;12.80;94.60;;;;;;5073263;28;20397;-71
2022/11/05 08:07:49;;;;;;;0.67;0.67;;;13.60;93.40;;;;;;5072467;28;20745;-72
2022/11/05 08:10:14;;;;;;;0.50;0.50;;;13.90;99.80;;;;;;5070865;28;20256;-72
2022/11/05 08:12:40;;;;;;;0.30;0.30;;;13.80;91.30;;;;;;5072887;28;20166;-72
2022/11/05 08:15:06;;;;;;;0.70;0.70;;;13.60;91.30;;;;;;5071712;28;20218;-71
2022/11/05 08:17:32;;;;;;;2.73;0.70;;;13.20;91.00;;;;;;5071564;28;20189;-70
2022/11/05 08:19:57;;;;;;;1.23;1.13;;;12.70;91.50;;;;;;5075925;28;20451;-69
2022/11/05 08:22:23;;;;;;;2.10;0.60;;;12.30;92.10;;;;;;5074545;28;20184;-71
2022/11/05 08:24:49;;;;;;;2.73;1.93;;;11.90;92.70;;;;;;5075190;28;20167;-71
2022/11/05 08:27:14;;;;;;;0.40;0.40;;;11.60;93.60;;;;;;5076168;28;20179;-71
2022/11/05 08:29:40;;;;;;;0.40;0.40;;;11.20;94.60;;;;;;5073935;28;20188;-71
2022/11/05 08:32:06;;;;;;;1.03;0.73;;;10.90;94.60;;;;;;5076083;28;20193;-70
2022/11/05 08:34:32;;;;;;;0.57;0.57;;;10.50;94.70;;;;;;5076218;28;20180;-70
2022/11/05 08:37:00;;;;;;;0.63;0.63;;;10.30;96.00;;;;;;5075515;28;20166;-69
2022/11/05 08:39:25;;;;;;;1.30;0.60;;;10.20;95.70;;;;;;5074219;28;20501;-69
2022/11/05 08:41:51;;;;;;;0.67;0.67;;;10.20;95.10;;;;;;5075677;28;20201;-70
2022/11/05 08:44:16;;;;;;;0.30;0.30;;;10.00;96.40;;;;;;5074569;28;20236;-70
2022/11/05 08:46:42;;;;;;;0.40;0.40;;;10.00;96.80;;;;;;5074763;28;20165;-69
2022/11/05 08:49:08;;;;;;;0.43;0.40;;;10.10;97.20;;;;;;5075734;28;20181;-69
2022/11/05 08:51:33;;;;;;;3.80;0.70;;;10.10;97.10;;;;;;5075006;28;20189;-69
2022/11/05 08:53:59;;;;;;;0.40;0.40;;;10.20;97.10;;;;;;5073971;28;20177;-70
2022/11/05 08:56:25;;;;;;;0.30;0.30;;;10.10;97.50;;;;;;5075669;28;20177;-69
2022/11/05 08:58:50;;;;;;;0.40;0.40;;;10.00;97.80;;;;;;5075470;28;20218;-70
2022/11/05 09:01:16;;;;;;;0.30;0.30;;;10.00;97.60;;;;;;5075801;28;20217;-70
2022/11/05 09:03:42;;;;;;;0.57;0.57;;;9.80;98.50;;;;;;5075927;28;20203;-72
2022/11/05 09:06:07;;;;;;;0.77;0.73;;;9.90;98.40;;;;;;5075979;28;20201;-68
2022/11/05 09:08:33;;;;;;;0.53;0.40;;;9.90;98.00;;;;;;5075981;28;20234;-67
2022/11/05 09:10:59;;;;;;;0.70;0.50;;;9.80;98.20;;;;;;5075206;28;20201;-68
2022/11/05 09:13:25;;;;;;;0.40;0.40;;;9.70;97.50;;;;;;5075476;28;20211;-69
2022/11/05 09:15:51;;;;;;;0.47;0.47;;;9.70;97.20;;;;;;5074292;28;20276;-68
2022/11/05 09:18:18;;;;;;;0.43;0.43;;;9.80;97.70;;;;;;5075518;28;20404;-70
2022/11/05 09:20:44;;;;;;;0.40;0.40;;;9.80;98.00;;;;;;5075238;28;20208;-68
2022/11/05 09:23:11;;;;;;;1.13;0.93;;;9.90;98.70;;;;;;5075733;28;20170;-69
2022/11/05 09:25:36;;;;;;;0.30;0.30;;;10.10;97.70;;;;;;5075043;28;20723;-69
2022/11/05 09:28:21;;;;;;;0.30;0.30;;;10.30;97.20;;;;;;5075151;28;20176;-67
2022/11/05 09:30:49;;;;;;;0.63;0.63;;;10.60;96.50;;;;;;5074263;28;20185;-69
2022/11/05 09:33:16;;;;;;;0.40;0.40;;;10.80;95.70;;;;;;5075502;28;20253;-67
2022/11/05 09:35:42;;;;;;;0.40;0.40;;;10.90;95.10;;;;;;5075447;28;20252;-69
2022/11/05 09:38:08;;;;;;;0.40;0.40;;;11.10;95.40;;;;;;5074901;28;20218;-69
2022/11/05 09:41:00;;;;;;;0.82;0.50;;;11.20;99.90;;;;;;5074598;28;20232;-67
2022/11/05 09:43:40;;;;;;;2.97;0.95;;;11.30;95.20;;;;;;5075227;28;20567;-68
2022/11/05 09:46:28;;;;;;;0.30;0.30;;;11.40;95.20;;;;;;5075284;28;20559;-69
2022/11/05 09:49:02;;;;;;;0.30;0.30;;;11.30;94.00;;;;;;5074691;28;20181;-69
2022/11/05 09:51:27;;;;;;;0.40;0.40;;;11.20;93.60;;;;;;5074573;28;20185;-67
2022/11/05 09:53:53;;;;;;;1.40;1.10;;;11.10;94.60;;;;;;5074984;28;20517;-67
2022/11/05 09:56:21;;;;;;;0.68;0.50;;;11.00;95.60;;;;;;5075062;28;20166;-68
2022/11/05 09:58:53;;;;;;;0.40;0.40;;;10.90;95.50;;;;;;5074297;28;20215;-68
2022/11/05 10:01:25;;;;;;;0.60;0.60;;;10.90;94.80;;;;;;5074652;28;20189;-67
2022/11/05 10:03:55;;;;;;;0.50;0.50;;;10.80;94.10;;;;;;5074739;28;20166;-69
2022/11/05 10:06:24;;;;;;;0.55;0.55;;;10.80;94.70;;;;;;5074666;28;20165;-68
2022/11/05 10:09:19;;;;;;;1.08;0.88;;;10.80;95.80;;;;;;5074626;28;20162;-68
2022/11/05 10:11:55;;;;;;;0.40;0.40;;;10.60;96.70;;;;;;5065754;28;20550;-68
2022/11/05 10:14:26;;;;;;;0.40;0.40;;;10.40;97.50;;;;;;5074392;28;20168;-68
2022/11/05 10:16:59;;;;;;;0.57;0.57;;;10.20;97.60;;;;;;5074237;28;20178;-68
2022/11/05 10:19:37;;;;;;;0.40;0.40;;;10.10;97.20;;;;;;5074225;28;20559;-68
2022/11/05 10:22:12;;;;;;;0.30;0.30;;;10.20;97.10;;;;;;5074063;28;20208;-68
2022/11/05 10:24:42;;;;;;;0.40;0.40;;;10.40;97.10;;;;;;5074328;28;20180;-67
2022/11/05 10:27:19;;;;;;;0.60;0.60;;;10.40;96.70;;;;;;5073905;28;20201;-67
2022/11/05 10:29:45;;;;;;;0.50;0.50;;;10.60;96.80;;;;;;5073843;28;20174;-68
2022/11/05 10:32:18;;;;;;;0.50;0.50;;;10.80;96.10;;;;;;5073727;28;20231;-69
2022/11/05 10:34:44;;;;;;;0.75;0.50;;;11.00;95.70;;;;;;5074082;28;20223;-68
2022/11/05 10:37:10;;;;;;;0.90;0.90;;;11.10;95.80;;;;;;5073797;28;20177;-68
2022/11/05 10:39:36;;;;;;;0.30;0.30;;;11.00;94.60;;;;;;5073565;28;20201;-69
2022/11/05 10:42:24;;;;;;;0.40;0.40;;;10.80;96.10;;;;;;5073586;28;20216;-69
2022/11/05 10:44:58;;;;;;;0.40;0.40;;;10.60;96.60;;;;;;5073731;28;20517;-69
2022/11/05 10:47:52;;;;;;;5.85;1.77;;;10.40;96.50;;;;;;5074059;28;20165;-69
2022/11/05 10:50:24;;;;;;;2.40;2.30;;;10.50;99.90;;;;;;5073371;28;20174;-68
2022/11/05 10:53:02;;;;;;;0.60;0.60;;;10.40;97.10;;;;;;5074143;28;20174;-68
2022/11/05 10:55:31;;;;;;;1.95;1.85;;;10.30;97.40;;;;;;5074058;28;20202;-69
2022/11/05 10:58:08;;;;;;;0.30;0.30;;;10.40;96.70;;;;;;5073903;28;20272;-70
2022/11/05 11:00:35;;;;;;;0.55;0.55;;;10.20;99.90;;;;;;5073556;28;20296;-68
2022/11/05 11:03:03;;;;;;;0.60;0.60;;;10.40;96.70;;;;;;5074029;28;20515;-69
2022/11/05 11:05:35;;;;;;;1.08;1.08;;;10.50;96.20;;;;;;5073468;28;20170;-68
2022/11/05 11:08:09;;;;;;;0.80;0.80;;;10.60;96.10;;;;;;5073785;28;20172;-68
2022/11/05 11:10:50;;;;;;;0.73;0.73;;;10.60;99.90;;;;;;5073491;28;20500;-69
2022/11/05 11:13:23;;;;;;;0.60;0.52;;;10.70;94.80;;;;;;5073956;28;20169;-68
2022/11/05 11:15:49;;;;;;;0.50;0.50;;;10.80;94.70;;;;;;5073664;28;20200;-67
2022/11/05 11:18:38;;;;;;;0.45;0.45;;;11.00;94.30;;;;;;5073197;28;20267;-68
2022/11/05 11:21:15;;;;;;;0.60;0.60;;;11.10;94.00;;;;;;5072081;28;20197;-70
2022/11/05 11:23:42;;;;;;;3.63;2.25;;;11.00;95.50;;;;;;5072315;28;20169;-67
2022/11/05 11:26:10;;;;;;;0.70;0.70;;;10.90;96.30;;;;;;5073031;28;20549;-68
2022/11/05 11:29:04;;;;;;;0.40;0.40;;;10.90;94.70;;;;;;5073536;28;20176;-68
2022/11/05 11:31:31;;;;;;;0.40;0.40;;;11.10;94.30;;;;;;5072942;28;20185;-68
2022/11/05 11:34:03;;;;;;;0.60;0.55;;;11.30;92.50;;;;;;5073078;28;20165;-70
2022/11/05 11:36:50;;;;;;;0.75;0.75;;;11.40;91.30;;;;;;5073260;28;20196;-69
2022/11/05 11:39:27;;;;;;;0.40;0.40;;;11.50;92.60;;;;;;5072782;28;20207;-68
2022/11/05 11:41:58;;;;;;;0.32;0.32;;;11.40;95.60;;;;;;5073095;28;20519;-70
2022/11/05 11:44:39;;;;;;;0.73;0.73;;;11.30;94.00;;;;;;5073213;28;20189;-69
2022/11/05 11:47:15;;;;;;;1.03;0.87;;;11.50;93.60;;;;;;5073230;28;20920;-67
2022/11/05 11:49:41;;;;;;;0.70;0.70;;;11.90;94.40;;;;;;5072924;28;20399;-69
2022/11/05 11:52:16;;;;;;;2.13;1.60;;;11.90;94.20;;;;;;5072854;28;20836;-67
2022/11/05 11:54:41;;;;;;;1.53;0.80;;;11.70;94.40;;;;;;5076712;28;20534;-69
2022/11/05 11:57:24;;;;;;;0.83;0.83;;;11.90;93.10;;;;;;5076810;28;20405;-70
2022/11/05 11:59:55;;;;;;;0.50;0.50;;;12.10;94.10;;;;;;5074186;28;20853;-69
2022/11/05 12:02:36;;;;;;;0.73;0.60;;;12.00;93.10;;;;;;5076921;28;20929;-69
2022/11/05 12:05:11;;;;;;;0.50;0.50;;;12.00;91.90;;;;;;5076981;28;20392;-67
2022/11/05 12:07:51;;;;;;;1.53;1.43;;;12.00;91.10;;;;;;5077128;28;20798;-67
2022/11/05 12:10:27;;;;;;;1.45;1.35;;;11.90;99.90;;;;;;5076533;28;20399;-69
2022/11/05 12:12:55;;;;;;;0.90;0.90;;;12.00;94.00;;;;;;5076699;28;20160;-69
2022/11/05 12:15:48;;;;;;;0.40;0.40;;;11.70;93.70;;;;;;5076738;28;20972;-69
2022/11/05 12:18:32;;;;;;;0.77;0.77;;;11.40;93.80;;;;;;5076682;28;20392;-70
2022/11/05 12:21:22;;;;;;;0.30;0.30;;;11.30;94.40;;;;;;5076136;28;20535;-69
2022/11/05 12:24:19;;;;;;;0.30;0.30;;;11.20;94.30;;;;;;5076695;28;20479;-68
2022/11/05 12:27:13;;;;;;;1.23;0.82;;;11.10;95.20;;;;;;5076474;28;20541;-67
2022/11/05 12:30:01;;;;;;;0.70;0.70;;;10.90;96.40;;;;;;5076100;28;20248;-68
2022/11/05 12:32:56;;;;;;;1.02;0.50;;;10.90;96.60;;;;;;5076611;28;20443;-69
2022/11/05 12:35:28;;;;;;;0.50;0.50;;;10.90;96.00;;;;;;5076567;28;20256;-67
2022/11/05 12:38:15;;;;;;;0.83;0.80;;;10.90;95.40;;;;;;5076220;28;20310;-69
2022/11/05 12:41:12;;;;;;;0.50;0.50;;;10.70;95.90;;;;;;5076185;28;20487;-68
2022/11/05 12:43:46;;;;;;;0.60;0.60;;;10.60;94.60;;;;;;5076199;28;20174;-69
2022/11/05 12:46:33;;;;;;;1.08;0.75;;;10.50;93.90;;;;;;5076051;28;20165;-69
2022/11/05 12:49:14;;;;;;;0.88;0.88;;;10.40;94.60;;;;;;5076170;28;20193;-69
2022/11/05 12:51:48;;;;;;;0.80;0.80;;;10.50;94.50;;;;;;5075892;28;20247;-68
2022/11/05 12:54:42;;;;;;;0.50;0.50;;;10.50;94.20;;;;;;5075766;28;20244;-68
2022/11/05 12:57:11;;;;;;;1.38;0.55;;;10.40;95.40;;;;;;5076016;28;20169;-68
2022/11/05 12:59:55;;;;;;;0.30;0.30;;;10.30;96.10;;;;;;5075580;28;20227;-67
2022/11/05 13:02:47;;;;;;;0.85;0.85;;;10.20;96.20;;;;;;5076006;28;20193;-69
2022/11/05 13:05:41;;;;;;;1.48;1.48;;;10.10;96.00;;;;;;5069682;28;20183;-67
2022/11/05 13:08:24;;;;;;;0.75;0.75;;;10.00;96.80;;;;;;5063756;28;20185;-70
2022/11/05 13:11:05;;;;;;;4.25;2.00;;;10.00;96.80;;;;;;5075267;28;20193;-69
2022/11/05 13:13:37;;;;;;;0.40;0.40;;;9.80;97.20;;;;;;5075637;28;20200;-70
2022/11/05 13:16:04;;;;;;;1.30;1.15;;;9.90;97.60;;;;;;5075702;28;20267;-70
2022/11/05 13:18:37;;;;;;;0.52;0.43;;;10.00;96.20;;;;;;5073198;28;20315;-70
2022/11/05 13:21:06;;;;;;;0.88;0.88;;;10.10;95.40;;;;;;5074862;28;20213;-69
2022/11/05 13:23:40;;;;;;;0.50;0.50;;;10.10;95.60;;;;;;5075220;28;20257;-69
2022/11/05 13:26:35;;;;;;;0.77;0.77;;;10.20;95.30;;;;;;5072700;28;20646;-69
2022/11/05 13:29:10;;;;;;;2.75;2.42;;;10.10;95.10;;;;;;5075140;28;20173;-69
2022/11/05 13:31:40;;;;;;;1.05;1.05;;;10.00;95.10;;;;;;5073759;28;20185;-67
2022/11/05 13:34:10;;;;;;;1.15;0.60;;;10.10;95.60;;;;;;5074116;28;20177;-68
2022/11/05 13:39:54;;;;;;;0.50;0.50;;;10.10;95.50;;;;;;5074950;28;20208;-68
2022/11/05 13:43:00;;;;;;;0.38;0.38;;;9.90;96.30;;;;;;5074919;28;20248;-67
2022/11/05 13:46:16;;;;;;;1.45;0.98;;;10.00;96.60;;;;;;5074531;28;20212;-72
2022/11/05 13:48:57;;;;;;;0.40;0.40;;;9.80;96.30;;;;;;5018636;28;20190;-72
2022/11/05 13:51:51;;;;;;;1.08;0.82;;;9.60;95.90;;;;;;5074998;28;20185;-72
2022/11/05 13:54:35;;;;;;;0.40;0.40;;;9.50;96.00;;;;;;5074618;28;20253;-71
2022/11/05 13:57:39;;;;;;;0.30;0.30;;;9.60;96.10;;;;;;5074786;28;20176;-69
2022/11/05 14:00:11;;;;;;;0.45;0.45;;;9.60;96.30;;;;;;5074281;28;20290;-72